Mirage, Colorado
Current Conditions -  °F | °C
As of 8:26 PM on Saturday 22 Nov 2014 (Local Time) from K04V Reporting Station
Clear Clear  
Wind Chill: 24°   Ceiling: Unl
Heat Index: 32°   Visibility: 10mi
Dew Point: 25°   Wind: 9mph
Humidity: 75%   Direction: 340°NNW
Pressure: 29.82"   Gusts: NA
Location:  37.9777°N, 105.779°W
Report Text: K04V 230326Z AUTO 34008KT 10SM CLR 00/M04 A2982 RMK AO2
Loading
Personal Weather Stations






























Interactive Weather Map New forecast layout! Learn more

10-Day Weather Forecast

Advertisements
Track Severe Weather on mobile